sensor_id;sensor_type;location;lat;lon;timestamp;P1;durP1;ratioP1;P2;durP2;ratioP2
13048;SDS011;6591;51.446;5.404;2023-04-01T00:01:09;3.27;;;1.53;;
13048;SDS011;6591;51.446;5.404;2023-04-01T00:03:43;5.47;;;1.80;;
13048;SDS011;6591;51.446;5.404;2023-04-01T00:06:15;2.13;;;1.27;;
13048;SDS011;6591;51.446;5.404;2023-04-01T00:08:44;4.00;;;1.40;;
13048;SDS011;6591;51.446;5.404;2023-04-01T00:11:12;3.77;;;1.40;;
13048;SDS011;6591;51.446;5.404;2023-04-01T00:13:41;6.23;;;1.40;;
13048;SDS011;6591;51.446;5.404;2023-04-01T00:16:08;4.07;;;1.40;;
13048;SDS011;6591;51.446;5.404;2023-04-01T00:18:47;4.00;;;1.90;;
13048;SDS011;6591;51.446;5.404;2023-04-01T00:21:16;3.67;;;1.50;;
13048;SDS011;6591;51.446;5.404;2023-04-01T00:23:45;3.40;;;1.60;;
13048;SDS011;6591;51.446;5.404;2023-04-01T00:26:12;3.63;;;1.53;;
13048;SDS011;6591;51.446;5.404;2023-04-01T00:28:41;5.20;;;1.67;;
13048;SDS011;6591;51.446;5.404;2023-04-01T00:31:09;2.93;;;1.50;;
13048;SDS011;6591;51.446;5.404;2023-04-01T00:33:38;2.20;;;1.40;;
13048;SDS011;6591;51.446;5.404;2023-04-01T00:36:07;1.93;;;1.23;;
13048;SDS011;6591;51.446;5.404;2023-04-01T00:38:44;1.77;;;1.67;;
13048;SDS011;6591;51.446;5.404;2023-04-01T00:41:12;4.53;;;1.33;;
13048;SDS011;6591;51.446;5.404;2023-04-01T00:43:42;3.17;;;1.30;;
13048;SDS011;6591;51.446;5.404;2023-04-01T00:46:14;2.80;;;1.37;;
13048;SDS011;6591;51.446;5.404;2023-04-01T00:48:42;2.33;;;1.43;;
13048;SDS011;6591;51.446;5.404;2023-04-01T00:51:20;2.70;;;1.40;;
13048;SDS011;6591;51.446;5.404;2023-04-01T00:53:54;2.57;;;1.50;;
13048;SDS011;6591;51.446;5.404;2023-04-01T00:56:30;2.23;;;1.47;;
13048;SDS011;6591;51.446;5.404;2023-04-01T00:59:04;2.03;;;1.40;;
13048;SDS011;6591;51.446;5.404;2023-04-01T01:01:44;2.03;;;1.50;;
13048;SDS011;6591;51.446;5.404;2023-04-01T01:04:28;4.30;;;1.50;;
13048;SDS011;6591;51.446;5.404;2023-04-01T01:07:13;1.73;;;1.47;;
13048;SDS011;6591;51.446;5.404;2023-04-01T01:15:41;4.73;;;1.50;;
13048;SDS011;6591;51.446;5.404;2023-04-01T01:18:25;1.60;;;1.50;;
13048;SDS011;6591;51.446;5.404;2023-04-01T01:27:18;1.57;;;1.47;;
13048;SDS011;6591;51.446;5.404;2023-04-01T01:32:58;4.43;;;1.80;;
13048;SDS011;6591;51.446;5.404;2023-04-01T01:35:52;2.10;;;1.73;;
13048;SDS011;6591;51.446;5.404;2023-04-01T01:38:26;2.43;;;1.90;;
13048;SDS011;6591;51.446;5.404;2023-04-01T01:41:02;4.80;;;2.40;;
13048;SDS011;6591;51.446;5.404;2023-04-01T01:43:35;2.57;;;2.37;;
13048;SDS011;6591;51.446;5.404;2023-04-01T01:46:14;3.27;;;2.97;;
13048;SDS011;6591;51.446;5.404;2023-04-01T01:48:47;3.00;;;2.80;;
13048;SDS011;6591;51.446;5.404;2023-04-01T01:51:18;3.17;;;2.83;;
13048;SDS011;6591;51.446;5.404;2023-04-01T01:53:48;3.50;;;3.20;;
13048;SDS011;6591;51.446;5.404;2023-04-01T01:56:17;4.00;;;3.43;;
13048;SDS011;6591;51.446;5.404;2023-04-01T01:58:57;3.63;;;3.33;;
13048;SDS011;6591;51.446;5.404;2023-04-01T02:01:35;4.03;;;3.63;;
13048;SDS011;6591;51.446;5.404;2023-04-01T02:04:11;3.83;;;3.40;;
13048;SDS011;6591;51.446;5.404;2023-04-01T02:06:44;4.57;;;4.17;;
13048;SDS011;6591;51.446;5.404;2023-04-01T02:09:22;4.60;;;4.20;;
13048;SDS011;6591;51.446;5.404;2023-04-01T02:11:52;4.40;;;4.10;;
13048;SDS011;6591;51.446;5.404;2023-04-01T02:17:32;5.50;;;5.00;;
13048;SDS011;6591;51.446;5.404;2023-04-01T02:20:06;5.40;;;4.80;;
13048;SDS011;6591;51.446;5.404;2023-04-01T02:22:54;5.63;;;5.10;;
13048;SDS011;6591;51.446;5.404;2023-04-01T02:25:27;6.70;;;5.97;;
13048;SDS011;6591;51.446;5.404;2023-04-01T02:28:00;7.37;;;5.60;;
13048;SDS011;6591;51.446;5.404;2023-04-01T02:30:33;7.63;;;6.07;;
13048;SDS011;6591;51.446;5.404;2023-04-01T02:33:04;6.27;;;5.27;;
13048;SDS011;6591;51.446;5.404;2023-04-01T02:35:33;6.53;;;5.60;;
13048;SDS011;6591;51.446;5.404;2023-04-01T02:38:03;6.63;;;5.73;;
13048;SDS011;6591;51.446;5.404;2023-04-01T02:43:30;7.27;;;5.53;;
13048;SDS011;6591;51.446;5.404;2023-04-01T02:45:58;7.70;;;5.30;;
13048;SDS011;6591;51.446;5.404;2023-04-01T02:48:25;5.90;;;4.37;;
13048;SDS011;6591;51.446;5.404;2023-04-01T02:50:52;5.67;;;5.00;;
13048;SDS011;6591;51.446;5.404;2023-04-01T02:53:20;9.80;;;5.30;;
13048;SDS011;6591;51.446;5.404;2023-04-01T02:55:47;6.07;;;4.90;;
13048;SDS011;6591;51.446;5.404;2023-04-01T02:58:16;4.70;;;3.93;;
13048;SDS011;6591;51.446;5.404;2023-04-01T03:00:44;6.67;;;4.50;;
13048;SDS011;6591;51.446;5.404;2023-04-01T03:03:11;6.17;;;4.30;;
13048;SDS011;6591;51.446;5.404;2023-04-01T03:05:39;5.67;;;3.67;;
13048;SDS011;6591;51.446;5.404;2023-04-01T03:08:07;5.63;;;4.20;;
13048;SDS011;6591;51.446;5.404;2023-04-01T03:10:34;5.53;;;4.20;;
13048;SDS011;6591;51.446;5.404;2023-04-01T03:13:02;5.03;;;4.50;;
13048;SDS011;6591;51.446;5.404;2023-04-01T03:15:30;5.77;;;4.60;;
13048;SDS011;6591;51.446;5.404;2023-04-01T03:17:57;6.83;;;4.77;;
13048;SDS011;6591;51.446;5.404;2023-04-01T03:20:24;5.97;;;5.37;;
13048;SDS011;6591;51.446;5.404;2023-04-01T03:22:51;5.47;;;4.97;;
13048;SDS011;6591;51.446;5.404;2023-04-01T03:25:18;5.50;;;5.00;;
13048;SDS011;6591;51.446;5.404;2023-04-01T03:27:46;5.10;;;4.60;;
13048;SDS011;6591;51.446;5.404;2023-04-01T03:30:13;4.80;;;4.40;;
13048;SDS011;6591;51.446;5.404;2023-04-01T03:32:48;4.90;;;4.50;;
13048;SDS011;6591;51.446;5.404;2023-04-01T03:35:15;5.70;;;4.67;;
13048;SDS011;6591;51.446;5.404;2023-04-01T03:37:42;4.83;;;4.43;;
13048;SDS011;6591;51.446;5.404;2023-04-01T03:40:09;5.43;;;4.93;;
13048;SDS011;6591;51.446;5.404;2023-04-01T03:42:37;6.43;;;4.40;;
13048;SDS011;6591;51.446;5.404;2023-04-01T03:45:05;4.60;;;4.20;;
13048;SDS011;6591;51.446;5.404;2023-04-01T03:47:32;5.20;;;4.37;;
13048;SDS011;6591;51.446;5.404;2023-04-01T03:50:00;4.43;;;4.03;;
13048;SDS011;6591;51.446;5.404;2023-04-01T03:52:27;4.67;;;4.27;;
13048;SDS011;6591;51.446;5.404;2023-04-01T03:54:54;4.83;;;4.33;;
13048;SDS011;6591;51.446;5.404;2023-04-01T03:57:21;5.60;;;4.70;;
13048;SDS011;6591;51.446;5.404;2023-04-01T03:59:49;4.33;;;3.93;;
13048;SDS011;6591;51.446;5.404;2023-04-01T04:02:16;5.10;;;4.60;;
13048;SDS011;6591;51.446;5.404;2023-04-01T04:04:44;5.57;;;5.07;;
13048;SDS011;6591;51.446;5.404;2023-04-01T04:07:14;4.60;;;4.20;;
13048;SDS011;6591;51.446;5.404;2023-04-01T04:10:04;5.00;;;4.60;;
13048;SDS011;6591;51.446;5.404;2023-04-01T04:12:32;4.87;;;4.40;;
13048;SDS011;6591;51.446;5.404;2023-04-01T04:15:00;5.53;;;5.00;;
13048;SDS011;6591;51.446;5.404;2023-04-01T04:17:30;6.00;;;5.17;;
13048;SDS011;6591;51.446;5.404;2023-04-01T04:19:57;6.07;;;5.27;;
13048;SDS011;6591;51.446;5.404;2023-04-01T04:22:25;6.37;;;5.77;;
13048;SDS011;6591;51.446;5.404;2023-04-01T04:24:52;5.90;;;5.40;;
13048;SDS011;6591;51.446;5.404;2023-04-01T04:27:20;6.07;;;5.50;;
13048;SDS011;6591;51.446;5.404;2023-04-01T04:29:57;5.83;;;5.23;;
13048;SDS011;6591;51.446;5.404;2023-04-01T04:32:24;6.27;;;5.70;;
13048;SDS011;6591;51.446;5.404;2023-04-01T04:34:51;5.97;;;5.47;;
13048;SDS011;6591;51.446;5.404;2023-04-01T04:37:18;5.93;;;5.33;;
13048;SDS011;6591;51.446;5.404;2023-04-01T04:39:45;5.80;;;5.20;;
13048;SDS011;6591;51.446;5.404;2023-04-01T04:42:13;6.13;;;5.43;;
13048;SDS011;6591;51.446;5.404;2023-04-01T04:44:40;5.40;;;4.90;;
13048;SDS011;6591;51.446;5.404;2023-04-01T04:47:08;4.93;;;4.13;;
13048;SDS011;6591;51.446;5.404;2023-04-01T04:49:35;4.80;;;4.40;;
13048;SDS011;6591;51.446;5.404;2023-04-01T04:52:06;4.63;;;4.23;;
13048;SDS011;6591;51.446;5.404;2023-04-01T04:54:34;4.30;;;3.90;;
13048;SDS011;6591;51.446;5.404;2023-04-01T04:57:03;4.33;;;3.93;;
13048;SDS011;6591;51.446;5.404;2023-04-01T04:59:36;4.93;;;4.50;;
13048;SDS011;6591;51.446;5.404;2023-04-01T05:02:13;4.30;;;3.90;;
13048;SDS011;6591;51.446;5.404;2023-04-01T05:04:40;3.90;;;3.50;;
13048;SDS011;6591;51.446;5.404;2023-04-01T05:07:10;4.07;;;3.67;;
13048;SDS011;6591;51.446;5.404;2023-04-01T05:09:37;3.93;;;3.63;;
13048;SDS011;6591;51.446;5.404;2023-04-01T05:12:04;3.67;;;3.37;;
13048;SDS011;6591;51.446;5.404;2023-04-01T05:14:52;3.80;;;3.50;;
13048;SDS011;6591;51.446;5.404;2023-04-01T05:17:19;3.80;;;3.50;;
13048;SDS011;6591;51.446;5.404;2023-04-01T05:19:46;3.77;;;3.47;;
13048;SDS011;6591;51.446;5.404;2023-04-01T05:22:13;3.70;;;3.33;;
13048;SDS011;6591;51.446;5.404;2023-04-01T05:24:42;3.03;;;2.83;;
13048;SDS011;6591;51.446;5.404;2023-04-01T05:27:10;3.20;;;2.90;;
13048;SDS011;6591;51.446;5.404;2023-04-01T05:29:39;4.30;;;2.90;;
13048;SDS011;6591;51.446;5.404;2023-04-01T05:32:11;3.00;;;2.73;;
13048;SDS011;6591;51.446;5.404;2023-04-01T05:34:38;3.03;;;2.80;;
13048;SDS011;6591;51.446;5.404;2023-04-01T05:37:07;3.00;;;2.70;;
13048;SDS011;6591;51.446;5.404;2023-04-01T05:39:37;3.10;;;2.80;;
13048;SDS011;6591;51.446;5.404;2023-04-01T05:42:06;3.00;;;2.73;;
13048;SDS011;6591;51.446;5.404;2023-04-01T05:44:34;3.50;;;2.90;;
13048;SDS011;6591;51.446;5.404;2023-04-01T05:47:22;3.63;;;2.73;;
13048;SDS011;6591;51.446;5.404;2023-04-01T05:49:49;3.40;;;3.00;;
13048;SDS011;6591;51.446;5.404;2023-04-01T05:52:17;3.50;;;3.20;;
13048;SDS011;6591;51.446;5.404;2023-04-01T05:54:44;3.53;;;3.20;;
13048;SDS011;6591;51.446;5.404;2023-04-01T05:57:11;4.07;;;3.27;;
13048;SDS011;6591;51.446;5.404;2023-04-01T05:59:38;3.83;;;3.43;;
13048;SDS011;6591;51.446;5.404;2023-04-01T06:02:05;3.83;;;3.47;;
13048;SDS011;6591;51.446;5.404;2023-04-01T06:04:34;4.00;;;3.60;;
13048;SDS011;6591;51.446;5.404;2023-04-01T06:07:10;4.23;;;3.83;;
13048;SDS011;6591;51.446;5.404;2023-04-01T06:09:40;4.20;;;3.80;;
13048;SDS011;6591;51.446;5.404;2023-04-01T06:15:02;4.40;;;4.00;;
13048;SDS011;6591;51.446;5.404;2023-04-01T06:17:52;4.20;;;3.80;;
13048;SDS011;6591;51.446;5.404;2023-04-01T06:24:12;5.23;;;4.73;;
13048;SDS011;6591;51.446;5.404;2023-04-01T06:27:38;5.07;;;4.40;;
13048;SDS011;6591;51.446;5.404;2023-04-01T06:36:53;4.93;;;4.53;;
13048;SDS011;6591;51.446;5.404;2023-04-01T06:43:30;4.40;;;4.00;;
13048;SDS011;6591;51.446;5.404;2023-04-01T06:56:18;4.20;;;3.80;;
13048;SDS011;6591;51.446;5.404;2023-04-01T06:59:15;4.70;;;4.30;;
13048;SDS011;6591;51.446;5.404;2023-04-01T07:01:52;5.37;;;4.70;;
13048;SDS011;6591;51.446;5.404;2023-04-01T07:04:46;5.37;;;4.87;;
13048;SDS011;6591;51.446;5.404;2023-04-01T07:07:21;5.77;;;5.27;;
13048;SDS011;6591;51.446;5.404;2023-04-01T07:10:02;6.60;;;6.00;;
13048;SDS011;6591;51.446;5.404;2023-04-01T07:12:46;7.47;;;6.23;;
13048;SDS011;6591;51.446;5.404;2023-04-01T07:15:49;7.03;;;6.33;;
13048;SDS011;6591;51.446;5.404;2023-04-01T07:18:34;7.47;;;6.73;;
13048;SDS011;6591;51.446;5.404;2023-04-01T07:21:18;7.87;;;7.00;;
13048;SDS011;6591;51.446;5.404;2023-04-01T07:24:32;10.53;;;8.60;;
13048;SDS011;6591;51.446;5.404;2023-04-01T07:27:09;10.00;;;8.93;;
13048;SDS011;6591;51.446;5.404;2023-04-01T07:29:40;9.60;;;8.60;;
13048;SDS011;6591;51.446;5.404;2023-04-01T07:32:27;11.23;;;9.70;;
13048;SDS011;6591;51.446;5.404;2023-04-01T07:38:11;11.60;;;10.10;;
13048;SDS011;6591;51.446;5.404;2023-04-01T07:56:31;13.60;;;11.73;;
13048;SDS011;6591;51.446;5.404;2023-04-01T07:59:09;13.77;;;11.27;;
13048;SDS011;6591;51.446;5.404;2023-04-01T08:02:02;16.40;;;12.47;;
13048;SDS011;6591;51.446;5.404;2023-04-01T08:05:14;17.73;;;12.57;;
13048;SDS011;6591;51.446;5.404;2023-04-01T08:11:28;15.57;;;12.20;;
13048;SDS011;6591;51.446;5.404;2023-04-01T08:17:50;16.90;;;13.23;;
13048;SDS011;6591;51.446;5.404;2023-04-01T08:20:57;15.10;;;12.67;;
13048;SDS011;6591;51.446;5.404;2023-04-01T08:23:48;16.93;;;13.07;;
13048;SDS011;6591;51.446;5.404;2023-04-01T08:26:39;17.60;;;13.80;;
13048;SDS011;6591;51.446;5.404;2023-04-01T08:32:12;15.73;;;13.37;;
13048;SDS011;6591;51.446;5.404;2023-04-01T08:34:47;18.17;;;13.63;;
13048;SDS011;6591;51.446;5.404;2023-04-01T08:37:42;16.90;;;12.33;;
13048;SDS011;6591;51.446;5.404;2023-04-01T08:52:15;14.33;;;11.70;;
13048;SDS011;6591;51.446;5.404;2023-04-01T08:55:38;15.37;;;11.50;;
13048;SDS011;6591;51.446;5.404;2023-04-01T09:10:31;11.47;;;9.80;;
13048;SDS011;6591;51.446;5.404;2023-04-01T09:19:20;12.50;;;9.40;;
13048;SDS011;6591;51.446;5.404;2023-04-01T09:37:21;8.83;;;7.93;;
13048;SDS011;6591;51.446;5.404;2023-04-01T09:40:45;7.83;;;7.03;;
13048;SDS011;6591;51.446;5.404;2023-04-01T09:52:26;6.90;;;5.77;;
13048;SDS011;6591;51.446;5.404;2023-04-01T09:55:50;6.40;;;5.80;;
13048;SDS011;6591;51.446;5.404;2023-04-01T10:23:15;9.30;;;6.23;;
13048;SDS011;6591;51.446;5.404;2023-04-01T10:29:01;7.37;;;5.67;;
13048;SDS011;6591;51.446;5.404;2023-04-01T10:35:36;8.73;;;7.20;;
13048;SDS011;6591;51.446;5.404;2023-04-01T11:06:47;7.33;;;6.13;;
13048;SDS011;6591;51.446;5.404;2023-04-01T11:12:56;7.03;;;5.40;;
13048;SDS011;6591;51.446;5.404;2023-04-01T11:16:10;5.97;;;4.70;;
13048;SDS011;6591;51.446;5.404;2023-04-01T11:36:55;6.60;;;5.67;;
13048;SDS011;6591;51.446;5.404;2023-04-01T11:40:51;6.47;;;5.00;;
13048;SDS011;6591;51.446;5.404;2023-04-01T11:44:12;6.60;;;5.90;;
13048;SDS011;6591;51.446;5.404;2023-04-01T11:53:17;6.90;;;6.10;;
13048;SDS011;6591;51.446;5.404;2023-04-01T12:21:58;3.77;;;3.43;;
13048;SDS011;6591;51.446;5.404;2023-04-01T12:24:49;5.80;;;4.10;;
13048;SDS011;6591;51.446;5.404;2023-04-01T12:30:58;4.13;;;3.77;;
13048;SDS011;6591;51.446;5.404;2023-04-01T12:36:51;4.03;;;3.63;;
13048;SDS011;6591;51.446;5.404;2023-04-01T13:00:35;4.80;;;4.30;;
13048;SDS011;6591;51.446;5.404;2023-04-01T13:10:20;5.30;;;4.73;;
13048;SDS011;6591;51.446;5.404;2023-04-01T13:25:17;5.40;;;4.90;;
13048;SDS011;6591;51.446;5.404;2023-04-01T13:28:20;6.87;;;5.13;;
13048;SDS011;6591;51.446;5.404;2023-04-01T13:31:38;7.57;;;6.13;;
13048;SDS011;6591;51.446;5.404;2023-04-01T13:34:39;7.20;;;4.90;;
13048;SDS011;6591;51.446;5.404;2023-04-01T13:43:39;7.40;;;5.90;;
13048;SDS011;6591;51.446;5.404;2023-04-01T13:46:32;8.13;;;6.20;;
13048;SDS011;6591;51.446;5.404;2023-04-01T14:13:02;6.20;;;5.17;;
13048;SDS011;6591;51.446;5.404;2023-04-01T14:19:08;5.67;;;3.80;;
13048;SDS011;6591;51.446;5.404;2023-04-01T14:28:42;4.40;;;3.77;;
13048;SDS011;6591;51.446;5.404;2023-04-01T14:31:59;4.23;;;3.83;;
13048;SDS011;6591;51.446;5.404;2023-04-01T14:44:05;3.33;;;3.00;;
13048;SDS011;6591;51.446;5.404;2023-04-01T14:49:51;3.93;;;3.23;;
13048;SDS011;6591;51.446;5.404;2023-04-01T14:52:32;4.13;;;3.73;;
13048;SDS011;6591;51.446;5.404;2023-04-01T14:58:04;4.10;;;3.67;;
13048;SDS011;6591;51.446;5.404;2023-04-01T15:06:20;5.13;;;4.27;;
13048;SDS011;6591;51.446;5.404;2023-04-01T15:18:03;5.37;;;4.13;;
13048;SDS011;6591;51.446;5.404;2023-04-01T15:21:12;4.93;;;3.87;;
13048;SDS011;6591;51.446;5.404;2023-04-01T15:24:05;4.60;;;4.10;;
13048;SDS011;6591;51.446;5.404;2023-04-01T15:26:58;5.20;;;4.70;;
13048;SDS011;6591;51.446;5.404;2023-04-01T15:32:50;5.73;;;5.03;;
13048;SDS011;6591;51.446;5.404;2023-04-01T15:36:19;5.67;;;5.00;;
13048;SDS011;6591;51.446;5.404;2023-04-01T15:39:31;6.30;;;5.40;;
13048;SDS011;6591;51.446;5.404;2023-04-01T15:42:31;5.90;;;5.30;;
13048;SDS011;6591;51.446;5.404;2023-04-01T15:51:07;6.17;;;5.40;;
13048;SDS011;6591;51.446;5.404;2023-04-01T16:02:47;7.17;;;5.33;;
13048;SDS011;6591;51.446;5.404;2023-04-01T16:05:42;5.30;;;4.80;;
13048;SDS011;6591;51.446;5.404;2023-04-01T16:11:37;4.80;;;4.30;;
13048;SDS011;6591;51.446;5.404;2023-04-01T16:18:05;5.30;;;4.80;;
13048;SDS011;6591;51.446;5.404;2023-04-01T16:23:49;5.30;;;4.50;;
13048;SDS011;6591;51.446;5.404;2023-04-01T16:26:27;4.93;;;4.30;;
13048;SDS011;6591;51.446;5.404;2023-04-01T16:29:28;6.83;;;4.53;;
13048;SDS011;6591;51.446;5.404;2023-04-01T16:35:34;5.03;;;4.40;;
13048;SDS011;6591;51.446;5.404;2023-04-01T16:43:42;4.90;;;4.00;;
13048;SDS011;6591;51.446;5.404;2023-04-01T16:54:36;5.80;;;5.20;;
13048;SDS011;6591;51.446;5.404;2023-04-01T16:57:36;6.90;;;5.60;;
13048;SDS011;6591;51.446;5.404;2023-04-01T17:00:51;7.37;;;5.80;;
13048;SDS011;6591;51.446;5.404;2023-04-01T17:03:30;7.63;;;6.30;;
13048;SDS011;6591;51.446;5.404;2023-04-01T17:12:35;7.50;;;6.57;;
13048;SDS011;6591;51.446;5.404;2023-04-01T17:21:49;9.70;;;8.63;;
13048;SDS011;6591;51.446;5.404;2023-04-01T17:24:56;10.83;;;9.73;;
13048;SDS011;6591;51.446;5.404;2023-04-01T17:52:44;8.20;;;7.07;;
13048;SDS011;6591;51.446;5.404;2023-04-01T18:24:30;5.20;;;4.70;;
13048;SDS011;6591;51.446;5.404;2023-04-01T18:27:17;5.47;;;4.97;;
13048;SDS011;6591;51.446;5.404;2023-04-01T18:30:15;5.20;;;4.70;;
13048;SDS011;6591;51.446;5.404;2023-04-01T18:33:04;5.47;;;4.97;;
13048;SDS011;6591;51.446;5.404;2023-04-01T18:38:50;5.40;;;4.90;;
13048;SDS011;6591;51.446;5.404;2023-04-01T18:41:36;5.60;;;5.00;;
13048;SDS011;6591;51.446;5.404;2023-04-01T18:44:50;5.30;;;4.47;;
13048;SDS011;6591;51.446;5.404;2023-04-01T18:47:43;5.83;;;5.27;;
13048;SDS011;6591;51.446;5.404;2023-04-01T18:56:24;5.97;;;5.27;;
13048;SDS011;6591;51.446;5.404;2023-04-01T19:02:02;5.57;;;5.07;;
13048;SDS011;6591;51.446;5.404;2023-04-01T19:07:46;5.37;;;4.87;;
13048;SDS011;6591;51.446;5.404;2023-04-01T19:16:25;4.90;;;4.50;;
13048;SDS011;6591;51.446;5.404;2023-04-01T19:25:25;5.00;;;4.53;;
13048;SDS011;6591;51.446;5.404;2023-04-01T19:28:13;5.10;;;4.60;;
13048;SDS011;6591;51.446;5.404;2023-04-01T19:34:09;5.30;;;4.80;;
13048;SDS011;6591;51.446;5.404;2023-04-01T19:37:11;5.07;;;4.57;;
13048;SDS011;6591;51.446;5.404;2023-04-01T19:40:23;7.50;;;5.57;;
13048;SDS011;6591;51.446;5.404;2023-04-01T19:54:25;8.07;;;7.27;;
13048;SDS011;6591;51.446;5.404;2023-04-01T20:03:01;8.70;;;7.90;;
13048;SDS011;6591;51.446;5.404;2023-04-01T20:05:39;9.50;;;8.60;;
13048;SDS011;6591;51.446;5.404;2023-04-01T20:08:40;9.30;;;8.40;;
13048;SDS011;6591;51.446;5.404;2023-04-01T20:11:30;7.87;;;7.07;;
13048;SDS011;6591;51.446;5.404;2023-04-01T20:14:12;7.37;;;6.67;;
13048;SDS011;6591;51.446;5.404;2023-04-01T20:17:09;7.57;;;6.80;;
13048;SDS011;6591;51.446;5.404;2023-04-01T20:20:15;8.10;;;7.30;;
13048;SDS011;6591;51.446;5.404;2023-04-01T20:25:55;6.87;;;6.27;;
13048;SDS011;6591;51.446;5.404;2023-04-01T20:40:58;8.13;;;7.33;;
13048;SDS011;6591;51.446;5.404;2023-04-01T20:43:51;7.53;;;6.73;;
13048;SDS011;6591;51.446;5.404;2023-04-01T20:52:42;8.17;;;7.03;;
13048;SDS011;6591;51.446;5.404;2023-04-01T21:04:27;8.50;;;7.70;;
13048;SDS011;6591;51.446;5.404;2023-04-01T21:07:27;8.33;;;7.60;;
13048;SDS011;6591;51.446;5.404;2023-04-01T21:16:00;7.80;;;7.07;;
13048;SDS011;6591;51.446;5.404;2023-04-01T21:21:32;7.97;;;7.27;;
13048;SDS011;6591;51.446;5.404;2023-04-01T21:39:30;6.80;;;6.20;;
13048;SDS011;6591;51.446;5.404;2023-04-01T22:03:10;10.40;;;9.40;;
13048;SDS011;6591;51.446;5.404;2023-04-01T22:06:29;9.47;;;8.47;;
13048;SDS011;6591;51.446;5.404;2023-04-01T22:09:11;10.43;;;8.90;;
13048;SDS011;6591;51.446;5.404;2023-04-01T22:12:21;9.20;;;8.30;;
13048;SDS011;6591;51.446;5.404;2023-04-01T22:17:57;10.43;;;8.93;;
13048;SDS011;6591;51.446;5.404;2023-04-01T22:20:43;8.53;;;7.73;;
13048;SDS011;6591;51.446;5.404;2023-04-01T22:26:56;9.27;;;8.37;;
13048;SDS011;6591;51.446;5.404;2023-04-01T22:29:57;9.50;;;8.60;;
13048;SDS011;6591;51.446;5.404;2023-04-01T22:44:23;13.90;;;12.47;;
13048;SDS011;6591;51.446;5.404;2023-04-01T22:50:19;14.33;;;12.83;;
13048;SDS011;6591;51.446;5.404;2023-04-01T22:53:30;13.07;;;11.77;;
13048;SDS011;6591;51.446;5.404;2023-04-01T22:56:44;15.17;;;13.57;;
13048;SDS011;6591;51.446;5.404;2023-04-01T23:02:39;13.40;;;11.90;;
13048;SDS011;6591;51.446;5.404;2023-04-01T23:05:13;13.37;;;12.07;;
13048;SDS011;6591;51.446;5.404;2023-04-01T23:08:00;12.87;;;11.57;;
13048;SDS011;6591;51.446;5.404;2023-04-01T23:10:58;13.03;;;11.73;;
13048;SDS011;6591;51.446;5.404;2023-04-01T23:13:34;12.30;;;11.10;;
13048;SDS011;6591;51.446;5.404;2023-04-01T23:16:10;12.33;;;11.03;;
13048;SDS011;6591;51.446;5.404;2023-04-01T23:21:23;11.30;;;10.20;;
13048;SDS011;6591;51.446;5.404;2023-04-01T23:24:25;12.63;;;11.43;;
13048;SDS011;6591;51.446;5.404;2023-04-01T23:29:35;11.97;;;10.50;;
13048;SDS011;6591;51.446;5.404;2023-04-01T23:32:13;10.17;;;9.17;;
13048;SDS011;6591;51.446;5.404;2023-04-01T23:34:49;11.20;;;10.03;;
13048;SDS011;6591;51.446;5.404;2023-04-01T23:37:20;11.53;;;10.37;;
13048;SDS011;6591;51.446;5.404;2023-04-01T23:39:49;12.13;;;10.90;;
13048;SDS011;6591;51.446;5.404;2023-04-01T23:42:22;10.03;;;9.13;;
13048;SDS011;6591;51.446;5.404;2023-04-01T23:44:56;10.87;;;9.83;;
13048;SDS011;6591;51.446;5.404;2023-04-01T23:47:30;10.97;;;9.87;;
13048;SDS011;6591;51.446;5.404;2023-04-01T23:50:12;11.00;;;9.90;;
13048;SDS011;6591;51.446;5.404;2023-04-01T23:52:51;10.83;;;9.77;;
13048;SDS011;6591;51.446;5.404;2023-04-01T23:55:48;10.00;;;9.07;;
